createdAt,value
2018-05-10T00:00:49.984Z,973.750
2018-05-10T00:02:50.108Z,973.749
2018-05-10T00:04:50.555Z,973.752
2018-05-10T00:06:49.830Z,973.713
2018-05-10T00:08:49.981Z,973.715
2018-05-10T00:10:50.155Z,973.721
2018-05-10T00:12:50.254Z,973.704
2018-05-10T00:14:50.388Z,973.698
2018-05-10T00:16:49.683Z,973.679
2018-05-10T00:18:49.782Z,973.644
2018-05-10T00:20:50.011Z,973.639
2018-05-10T00:22:50.234Z,973.615
2018-05-10T00:24:50.437Z,973.601
2018-05-10T00:26:49.837Z,973.595
2018-05-10T00:28:50.084Z,973.610
2018-05-10T00:30:50.251Z,973.617
2018-05-10T00:32:50.367Z,973.616
2018-05-10T00:34:49.682Z,973.620
2018-05-10T00:36:50.021Z,973.626
2018-05-10T00:38:50.201Z,973.630
2018-05-10T00:40:50.331Z,973.629
2018-05-10T00:42:50.448Z,973.625
2018-05-10T00:44:50.578Z,973.617
2018-05-10T00:46:49.814Z,973.622
2018-05-10T00:48:49.974Z,973.637
2018-05-10T00:50:50.153Z,973.648
2018-05-10T00:52:50.279Z,973.645
2018-05-10T00:54:50.378Z,973.652
2018-05-10T00:56:49.684Z,973.651
2018-05-10T00:58:49.816Z,973.654
2018-05-10T01:00:49.932Z,973.634
2018-05-10T01:02:50.078Z,973.638
2018-05-10T01:04:50.699Z,973.622
2018-05-10T01:06:50.386Z,973.629
2018-05-10T01:08:50.522Z,973.637
2018-05-10T01:10:49.687Z,973.635
2018-05-10T01:12:49.921Z,973.652
2018-05-10T01:14:50.021Z,973.658
2018-05-10T01:16:50.330Z,973.637
2018-05-10T01:18:50.552Z,973.637
2018-05-10T01:20:49.771Z,973.609
2018-05-10T01:22:50.079Z,973.615
2018-05-10T01:24:50.216Z,973.623
2018-05-10T01:26:50.588Z,973.635
2018-05-10T01:28:49.670Z,973.638
2018-05-10T01:30:49.751Z,973.604
2018-05-10T01:32:49.959Z,973.593
2018-05-10T01:34:50.279Z,973.574
2018-05-10T01:36:50.477Z,973.574
2018-05-10T01:38:49.654Z,973.531
2018-05-10T01:40:49.810Z,973.565
2018-05-10T01:42:49.944Z,973.565
2018-05-10T01:44:50.167Z,973.599
2018-05-10T01:46:50.453Z,973.576
2018-05-10T01:48:50.557Z,973.554
2018-05-10T01:50:49.682Z,973.552
2018-05-10T01:52:49.801Z,973.563
2018-05-10T01:54:50.004Z,973.580
2018-05-10T01:56:50.242Z,973.606
2018-05-10T01:58:50.428Z,973.596
2018-05-10T02:00:50.583Z,973.577
2018-05-10T02:02:49.881Z,973.532
2018-05-10T02:04:50.181Z,973.521
2018-05-10T02:06:50.551Z,973.526
2018-05-10T02:08:50.601Z,973.541
2018-05-10T02:10:49.796Z,973.553
2018-05-10T02:12:49.981Z,973.547
2018-05-10T02:14:50.324Z,973.547
2018-05-10T02:16:50.407Z,973.540
2018-05-10T02:18:50.567Z,973.534
2018-05-10T02:20:49.710Z,973.517
2018-05-10T02:22:49.792Z,973.505
2018-05-10T02:24:49.898Z,973.506
2018-05-10T02:26:50.249Z,973.523
2018-05-10T02:28:50.398Z,973.540
2018-05-10T02:30:50.531Z,973.551
2018-05-10T02:32:49.695Z,973.551
2018-05-10T02:34:50.112Z,973.570
2018-05-10T02:36:50.441Z,973.575
2018-05-10T02:38:50.613Z,973.580
2018-05-10T02:40:49.771Z,973.590
2018-05-10T02:42:49.997Z,973.635
2018-05-10T02:44:50.297Z,973.666
2018-05-10T02:46:49.897Z,973.687
2018-05-10T02:48:49.985Z,973.689
2018-05-10T02:50:50.141Z,973.685
2018-05-10T02:52:50.379Z,973.690
2018-05-10T02:54:50.588Z,973.674
2018-05-10T02:56:49.921Z,973.689
2018-05-10T02:58:50.118Z,973.721
2018-05-10T03:00:50.345Z,973.729
2018-05-10T03:02:50.525Z,973.753
2018-05-10T03:04:50.035Z,973.758
2018-05-10T03:06:50.307Z,973.776
2018-05-10T03:08:50.480Z,973.753
2018-05-10T03:10:49.667Z,973.756
2018-05-10T03:12:49.902Z,973.740
2018-05-10T03:14:50.202Z,973.736
2018-05-10T03:16:50.476Z,973.702
2018-05-10T03:18:49.628Z,973.706
2018-05-10T03:20:49.720Z,973.697
2018-05-10T03:22:49.825Z,973.693
2018-05-10T03:24:49.928Z,973.710
2018-05-10T03:26:50.123Z,973.717
2018-05-10T03:28:50.307Z,973.724
2018-05-10T03:30:50.484Z,973.747
2018-05-10T03:32:49.721Z,973.730
2018-05-10T03:34:50.107Z,973.729
2018-05-10T03:36:50.368Z,973.748
2018-05-10T03:38:50.523Z,973.768
2018-05-10T03:40:50.666Z,973.812
2018-05-10T03:42:49.904Z,973.817
2018-05-10T03:44:50.023Z,973.865
2018-05-10T03:46:50.224Z,973.870
2018-05-10T03:48:50.370Z,973.879
2018-05-10T03:50:50.505Z,973.896
2018-05-10T03:52:49.698Z,973.894
2018-05-10T03:54:49.838Z,973.951
2018-05-10T03:56:50.133Z,973.972
2018-05-10T03:58:50.264Z,974.025
2018-05-10T04:00:50.384Z,974.025
2018-05-10T04:02:50.525Z,974.057
2018-05-10T04:04:49.906Z,974.091
2018-05-10T04:06:50.169Z,974.100
2018-05-10T04:08:49.928Z,974.095
2018-05-10T04:10:50.032Z,974.099
2018-05-10T04:12:50.374Z,974.106
2018-05-10T04:14:49.665Z,974.112
2018-05-10T04:16:49.918Z,974.113
2018-05-10T04:18:50.059Z,974.111
2018-05-10T04:20:50.178Z,974.125
2018-05-10T04:22:50.279Z,974.108
2018-05-10T04:24:50.450Z,974.115
2018-05-10T04:26:50.306Z,974.113
2018-05-10T04:28:50.497Z,974.098
2018-05-10T04:30:49.695Z,974.095
2018-05-10T04:32:49.910Z,974.084
2018-05-10T04:34:50.254Z,974.084
2018-05-10T04:36:50.617Z,974.127
2018-05-10T04:38:49.731Z,974.127
2018-05-10T04:40:49.902Z,974.137
2018-05-10T04:42:50.157Z,974.118
2018-05-10T04:44:50.373Z,974.131
2018-05-10T04:46:49.692Z,974.152
2018-05-10T04:48:49.834Z,974.160
2018-05-10T04:50:49.987Z,974.158
2018-05-10T04:52:50.168Z,974.163
2018-05-10T04:54:50.533Z,974.166
2018-05-10T04:56:50.210Z,974.147
2018-05-10T04:58:50.319Z,974.142
2018-05-10T05:00:50.482Z,974.133
2018-05-10T05:02:49.734Z,974.141
2018-05-10T05:04:50.214Z,974.158
2018-05-10T05:06:50.529Z,974.154
2018-05-10T05:08:49.827Z,974.151
2018-05-10T05:10:50.380Z,974.154
2018-05-10T05:12:50.536Z,974.161
2018-05-10T05:14:49.808Z,974.147
2018-05-10T05:16:50.162Z,974.136
2018-05-10T05:18:50.295Z,974.129
2018-05-10T05:20:50.520Z,974.119
2018-05-10T05:22:49.681Z,974.126
2018-05-10T05:24:49.787Z,974.127
2018-05-10T05:26:50.224Z,974.155
2018-05-10T05:28:49.627Z,974.164
2018-05-10T05:30:49.749Z,974.194
2018-05-10T05:32:49.901Z,974.203
2018-05-10T05:34:50.200Z,974.218
2018-05-10T05:36:50.009Z,974.228
2018-05-10T05:38:50.141Z,974.260
2018-05-10T05:40:50.304Z,974.297
2018-05-10T05:42:50.462Z,974.311
2018-05-10T05:44:49.691Z,974.325
2018-05-10T05:46:49.895Z,974.332
2018-05-10T05:48:50.038Z,974.336
2018-05-10T05:50:50.207Z,974.340
2018-05-10T05:52:50.401Z,974.341
2018-05-10T05:54:50.589Z,974.363
2018-05-10T05:56:49.896Z,974.393
2018-05-10T05:58:50.094Z,974.409
2018-05-10T06:00:50.499Z,974.453
2018-05-10T06:02:49.923Z,974.469
2018-05-10T06:04:50.345Z,974.521
2018-05-10T06:06:49.673Z,974.540
2018-05-10T06:08:49.856Z,974.559
2018-05-10T06:10:49.967Z,974.561
2018-05-10T06:12:50.170Z,974.568
2018-05-10T06:14:50.345Z,974.571
2018-05-10T06:16:49.606Z,974.585
2018-05-10T06:18:49.746Z,974.621
2018-05-10T06:20:49.888Z,974.632
2018-05-10T06:22:50.128Z,974.632
2018-05-10T06:24:50.696Z,974.670
2018-05-10T06:26:49.757Z,974.670
2018-05-10T06:28:49.957Z,974.705
2018-05-10T06:30:50.085Z,974.698
2018-05-10T06:32:50.239Z,974.710
2018-05-10T06:34:50.672Z,974.686
2018-05-10T06:36:49.988Z,974.681
2018-05-10T06:38:50.123Z,974.676
2018-05-10T06:40:50.279Z,974.673
2018-05-10T06:42:50.465Z,974.673
2018-05-10T06:52:49.499Z,974.809
2018-05-10T06:54:49.647Z,974.802
2018-05-10T06:56:49.995Z,974.808
2018-05-10T06:58:50.150Z,974.822
2018-05-10T07:00:50.271Z,974.863
2018-05-10T07:02:50.501Z,974.856
2018-05-10T07:04:49.869Z,974.855
2018-05-10T07:06:50.094Z,974.870
2018-05-10T07:08:50.224Z,974.870
2018-05-10T07:10:50.394Z,974.866
2018-05-10T07:12:50.608Z,974.879
2018-05-10T07:14:49.854Z,974.897
2018-05-10T07:16:50.172Z,974.895
2018-05-10T07:18:50.339Z,974.907
2018-05-10T07:20:50.536Z,974.931
2018-05-10T07:22:49.671Z,974.952
2018-05-10T07:24:49.891Z,974.984
2018-05-10T07:26:50.119Z,974.976
2018-05-10T07:28:50.271Z,974.987
2018-05-10T07:30:50.457Z,974.999
2018-05-10T07:32:49.706Z,975.026
2018-05-10T07:34:50.149Z,975.037
2018-05-10T07:36:50.478Z,975.037
2018-05-10T07:38:49.763Z,975.089
2018-05-10T07:40:49.902Z,975.095
2018-05-10T07:42:50.056Z,975.087
2018-05-10T07:44:50.170Z,975.079
2018-05-10T07:46:50.441Z,975.107
2018-05-10T07:48:50.553Z,975.102
2018-05-10T07:50:49.706Z,975.102
2018-05-10T07:52:49.919Z,975.143
2018-05-10T07:54:50.015Z,975.160
2018-05-10T07:56:50.328Z,975.191
2018-05-10T07:58:50.422Z,975.196
2018-05-10T08:00:50.594Z,975.202
2018-05-10T08:02:49.721Z,975.193
2018-05-10T08:04:50.037Z,975.179
2018-05-10T08:06:50.312Z,975.179
2018-05-10T08:08:50.566Z,975.179
2018-05-10T08:10:49.750Z,975.184
2018-05-10T08:12:49.854Z,975.182
2018-05-10T08:14:49.971Z,975.190
2018-05-10T08:16:50.328Z,975.170
2018-05-10T08:18:50.433Z,975.162
2018-05-10T08:20:50.591Z,975.139
2018-05-10T08:22:49.820Z,975.148
2018-05-10T08:24:49.984Z,975.156
2018-05-10T08:26:50.309Z,975.175
2018-05-10T08:28:50.454Z,975.185
2018-05-10T08:30:50.604Z,975.185
2018-05-10T08:32:49.738Z,975.189
2018-05-10T08:34:50.093Z,975.190
2018-05-10T08:36:50.998Z,975.195
2018-05-10T08:38:50.535Z,975.202
2018-05-10T08:40:49.745Z,975.202
2018-05-10T08:42:49.951Z,975.234
2018-05-10T08:44:50.049Z,975.247
2018-05-10T08:46:50.294Z,975.251
2018-05-10T08:48:50.411Z,975.276
2018-05-10T08:50:49.614Z,975.302
2018-05-10T08:52:49.694Z,975.334
2018-05-10T08:54:49.753Z,975.345
2018-05-10T08:56:50.044Z,975.367
2018-05-10T08:58:50.195Z,975.365
2018-05-10T09:00:50.348Z,975.390
2018-05-10T09:02:50.481Z,975.392
2018-05-10T09:04:49.916Z,975.392
2018-05-10T09:06:50.144Z,975.392
2018-05-10T09:08:50.241Z,975.433
2018-05-10T09:10:50.352Z,975.418
2018-05-10T09:12:50.481Z,975.415
2018-05-10T09:14:49.608Z,975.426
2018-05-10T09:16:49.785Z,975.443
2018-05-10T09:18:49.963Z,975.456
2018-05-10T09:20:50.070Z,975.464
2018-05-10T09:22:50.346Z,975.485
2018-05-10T09:24:50.486Z,975.497
2018-05-10T09:26:49.714Z,975.510
2018-05-10T09:28:49.893Z,975.519
2018-05-10T09:30:50.111Z,975.532
2018-05-10T09:32:50.293Z,975.545
2018-05-10T09:34:49.633Z,975.544
2018-05-10T09:36:49.960Z,975.547
2018-05-10T09:38:50.118Z,975.535
2018-05-10T09:40:50.244Z,975.543
2018-05-10T09:42:50.333Z,975.506
2018-05-10T09:44:50.737Z,975.483
2018-05-10T09:46:50.055Z,975.495
2018-05-10T09:48:50.188Z,975.523
2018-05-10T09:50:50.328Z,975.522
2018-05-10T09:52:50.404Z,975.500
2018-05-10T09:54:50.562Z,975.500
2018-05-10T09:56:49.775Z,975.516
2018-05-10T09:58:49.956Z,975.518
2018-05-10T10:00:50.054Z,975.518
2018-05-10T10:02:50.157Z,975.506
2018-05-10T10:04:50.579Z,975.518
2018-05-10T10:06:49.808Z,975.536
2018-05-10T10:08:49.910Z,975.549
2018-05-10T10:10:50.039Z,975.561
2018-05-10T10:12:50.280Z,975.561
2018-05-10T10:14:50.393Z,975.565
2018-05-10T10:16:49.655Z,975.527
2018-05-10T10:18:49.732Z,975.527
2018-05-10T10:20:49.842Z,975.512
2018-05-10T10:22:49.976Z,975.465
2018-05-10T10:24:50.165Z,975.469
2018-05-10T10:26:50.453Z,975.476
2018-05-10T10:28:50.604Z,975.475
2018-05-10T10:30:49.713Z,975.459
2018-05-10T10:32:49.802Z,975.459
2018-05-10T10:34:50.112Z,975.479
2018-05-10T10:36:50.382Z,975.479
2018-05-10T10:38:50.591Z,975.460
2018-05-10T10:40:49.699Z,975.428
2018-05-10T10:42:49.838Z,975.427
2018-05-10T10:44:49.993Z,975.402
2018-05-10T10:46:50.247Z,975.393
2018-05-10T10:48:50.560Z,975.357
2018-05-10T10:50:49.636Z,975.346
2018-05-10T10:52:49.827Z,975.346
2018-05-10T10:54:50.089Z,975.305
2018-05-10T10:56:50.362Z,975.290
2018-05-10T10:58:50.460Z,975.309
2018-05-10T11:00:49.649Z,975.318
2018-05-10T11:02:49.793Z,975.337
2018-05-10T11:04:50.110Z,975.335
2018-05-10T11:06:50.309Z,975.307
2018-05-10T11:08:50.606Z,975.299
2018-05-10T11:10:50.001Z,975.311
2018-05-10T11:12:50.171Z,975.305
2018-05-10T11:14:50.312Z,975.335
2018-05-10T11:16:49.635Z,975.312
2018-05-10T11:18:49.747Z,975.309
2018-05-10T11:20:50.088Z,975.321
2018-05-10T11:22:50.494Z,975.345
2018-05-10T11:24:50.602Z,975.406
2018-05-10T11:26:49.820Z,975.481
2018-05-10T11:28:49.895Z,975.623
2018-05-10T11:30:50.007Z,975.698
2018-05-10T11:32:50.377Z,975.732
2018-05-10T11:34:49.853Z,975.716
2018-05-10T11:36:50.079Z,975.711
2018-05-10T11:38:50.246Z,975.756
2018-05-10T11:40:50.389Z,975.758
2018-05-10T11:42:49.652Z,975.785
2018-05-10T11:44:49.753Z,975.771
2018-05-10T11:46:50.020Z,975.808
2018-05-10T11:48:50.182Z,975.813
2018-05-10T11:50:50.299Z,975.864
2018-05-10T11:52:50.417Z,975.853
2018-05-10T11:54:50.524Z,975.894
2018-05-10T11:56:49.825Z,975.894
2018-05-10T11:58:49.969Z,975.954
2018-05-10T12:00:50.089Z,975.966
2018-05-10T12:02:50.203Z,975.962
2018-05-10T12:04:49.745Z,975.957
2018-05-10T12:06:49.952Z,975.938
2018-05-10T12:08:50.051Z,975.930
2018-05-10T12:10:50.207Z,975.911
2018-05-10T12:12:50.371Z,975.924
2018-05-10T12:14:50.489Z,975.934
2018-05-10T12:16:49.753Z,975.942
2018-05-10T12:18:50.051Z,975.963
2018-05-10T12:20:50.220Z,975.963
2018-05-10T12:22:50.369Z,976.079
2018-05-10T12:24:50.543Z,976.168
2018-05-10T12:26:49.905Z,976.288
2018-05-10T12:28:50.101Z,976.395
2018-05-10T12:30:50.197Z,976.560
2018-05-10T12:32:50.338Z,976.797
2018-05-10T12:34:49.685Z,976.797
2018-05-10T12:36:49.947Z,977.040
2018-05-10T12:38:50.052Z,977.174
2018-05-10T12:40:50.246Z,977.418
2018-05-10T12:42:49.647Z,977.487
2018-05-10T12:44:50.030Z,977.637
2018-05-10T12:46:50.263Z,977.726
2018-05-10T12:48:50.436Z,977.819
2018-05-10T12:50:50.599Z,977.889
2018-05-10T12:52:49.743Z,978.181
2018-05-10T12:54:49.909Z,978.181
2018-05-10T12:56:50.208Z,978.213
2018-05-10T12:58:50.306Z,978.219
2018-05-10T13:00:50.651Z,978.147
2018-05-10T13:02:50.434Z,978.147
2018-05-10T13:04:50.309Z,978.097
2018-05-10T13:06:50.808Z,978.103
2018-05-10T13:08:50.152Z,978.088
2018-05-10T13:10:50.348Z,978.106
2018-05-10T13:12:50.569Z,978.154
2018-05-10T13:14:49.661Z,978.216
2018-05-10T13:16:49.949Z,978.240
2018-05-10T13:18:50.044Z,978.234
2018-05-10T13:20:50.237Z,978.253
2018-05-10T13:22:50.358Z,978.322
2018-05-10T13:24:50.488Z,978.376
2018-05-10T13:26:49.674Z,978.409
2018-05-10T13:28:50.003Z,978.413
2018-05-10T13:30:50.300Z,978.442
2018-05-10T13:32:50.444Z,978.515
2018-05-10T13:34:49.885Z,978.533
2018-05-10T13:36:50.130Z,978.556
2018-05-10T13:38:50.251Z,978.577
2018-05-10T13:40:50.276Z,978.596
2018-05-10T13:42:50.420Z,978.616
2018-05-10T13:44:50.589Z,978.609
2018-05-10T13:46:49.802Z,978.631
2018-05-10T13:48:49.986Z,978.638
2018-05-10T13:50:50.095Z,978.688
2018-05-10T13:52:50.235Z,978.710
2018-05-10T13:54:50.330Z,978.754
2018-05-10T13:56:50.537Z,978.768
2018-05-10T13:58:49.701Z,978.799
2018-05-10T14:00:49.818Z,978.842
2018-05-10T14:02:49.928Z,978.850
2018-05-10T14:04:50.320Z,978.884
2018-05-10T14:06:50.467Z,978.904
2018-05-10T14:08:49.626Z,978.945
2018-05-10T14:10:49.888Z,978.967
2018-05-10T14:12:50.190Z,978.967
2018-05-10T14:14:50.377Z,978.995
2018-05-10T14:16:49.691Z,978.993
2018-05-10T14:18:49.787Z,978.995
2018-05-10T14:20:50.027Z,979.006
2018-05-10T14:22:50.134Z,979.053
2018-05-10T14:24:50.265Z,979.058
2018-05-10T14:26:50.548Z,979.050
2018-05-10T14:28:50.601Z,979.059
2018-05-10T14:30:49.708Z,979.057
2018-05-10T14:32:49.898Z,979.057
2018-05-10T14:34:50.459Z,979.078
2018-05-10T14:36:49.736Z,979.085
2018-05-10T14:38:49.854Z,979.080
2018-05-10T14:40:49.983Z,979.064
2018-05-10T14:42:50.121Z,979.048
2018-05-10T14:44:50.261Z,979.077
2018-05-10T14:46:50.489Z,979.094
2018-05-10T14:48:50.609Z,979.147
2018-05-10T14:50:49.821Z,979.184
2018-05-10T14:52:49.907Z,979.194
2018-05-10T14:54:50.069Z,979.204
2018-05-10T14:56:50.332Z,979.206
2018-05-10T14:58:50.459Z,979.215
2018-05-10T15:00:49.610Z,979.230
2018-05-10T15:02:49.768Z,979.241
2018-05-10T15:04:50.113Z,979.263
2018-05-10T15:06:50.311Z,979.284
2018-05-10T15:08:50.425Z,979.311
2018-05-10T15:10:50.568Z,979.331
2018-05-10T15:12:49.792Z,979.362
2018-05-10T15:14:49.991Z,979.385
2018-05-10T15:16:50.168Z,979.429
2018-05-10T15:18:50.307Z,979.477
2018-05-10T15:20:50.409Z,979.489
2018-05-10T15:22:50.529Z,979.500
2018-05-10T15:24:49.755Z,979.499
2018-05-10T15:26:50.057Z,979.506
2018-05-10T15:28:50.196Z,979.531
2018-05-10T15:30:50.385Z,979.543
2018-05-10T15:32:50.503Z,979.564
2018-05-10T15:34:49.844Z,979.564
2018-05-10T15:36:50.087Z,979.687
2018-05-10T15:38:50.216Z,979.712
2018-05-10T15:40:50.372Z,979.735
2018-05-10T15:42:50.476Z,979.763
2018-05-10T15:44:50.570Z,979.787
2018-05-10T15:46:49.798Z,979.810
2018-05-10T15:48:49.893Z,979.810
2018-05-10T15:50:50.076Z,979.812
2018-05-10T15:52:50.227Z,979.804
2018-05-10T15:54:50.390Z,979.766
2018-05-10T15:56:49.718Z,979.753
2018-05-10T15:58:49.885Z,979.741
2018-05-10T16:00:49.956Z,979.724
2018-05-10T16:02:50.131Z,979.751
2018-05-10T16:04:50.423Z,979.790
2018-05-10T16:06:49.717Z,979.802
2018-05-10T16:08:49.880Z,979.791
2018-05-10T16:10:50.010Z,979.791
2018-05-10T16:12:50.240Z,979.829
2018-05-10T16:14:50.354Z,979.829
2018-05-10T16:16:49.675Z,979.913
2018-05-10T16:18:49.764Z,979.936
2018-05-10T16:20:49.957Z,979.989
2018-05-10T16:22:50.150Z,980.025
2018-05-10T16:24:50.357Z,980.074
2018-05-10T16:26:49.642Z,980.115
2018-05-10T16:28:49.842Z,980.174
2018-05-10T16:30:50.018Z,980.215
2018-05-10T16:32:50.393Z,980.217
2018-05-10T16:34:50.029Z,980.251
2018-05-10T16:36:50.270Z,980.312
2018-05-10T16:38:50.425Z,980.316
2018-05-10T16:40:50.541Z,980.351
2018-05-10T16:42:49.689Z,980.346
2018-05-10T16:44:49.949Z,980.365
2018-05-10T16:46:50.289Z,980.421
2018-05-10T16:48:50.358Z,980.476
2018-05-10T16:50:50.583Z,980.482
2018-05-10T16:52:49.708Z,980.502
2018-05-10T16:54:49.872Z,980.502
2018-05-10T16:56:50.131Z,980.534
2018-05-10T16:58:50.315Z,980.552
2018-05-10T17:00:50.463Z,980.583
2018-05-10T17:02:49.649Z,980.612
2018-05-10T17:04:49.927Z,980.658
2018-05-10T17:06:50.119Z,980.681
2018-05-10T17:08:50.332Z,980.707
2018-05-10T17:10:50.461Z,980.746
2018-05-10T17:12:50.584Z,980.763
2018-05-10T17:14:49.737Z,980.793
2018-05-10T17:16:49.928Z,980.837
2018-05-10T17:18:50.074Z,980.856
2018-05-10T17:20:50.228Z,980.877
2018-05-10T17:22:50.365Z,980.914
2018-05-10T17:24:50.500Z,980.928
2018-05-10T17:26:49.683Z,980.965
2018-05-10T17:28:49.830Z,981.020
2018-05-10T17:30:50.161Z,981.051
2018-05-10T17:32:50.419Z,981.090
2018-05-10T17:34:49.764Z,981.116
2018-05-10T17:36:49.991Z,981.126
2018-05-10T17:38:50.254Z,981.233
2018-05-10T17:40:50.341Z,981.263
2018-05-10T17:42:49.624Z,981.330
2018-05-10T17:44:49.763Z,981.361
2018-05-10T17:46:50.082Z,981.402
2018-05-10T17:48:50.257Z,981.462
2018-05-10T17:50:50.446Z,981.462
2018-05-10T17:52:49.654Z,981.555
2018-05-10T17:54:49.841Z,981.574
2018-05-10T17:56:50.141Z,981.625
2018-05-10T17:58:50.280Z,981.660
2018-05-10T18:00:50.525Z,981.758
2018-05-10T18:02:49.801Z,981.825
2018-05-10T18:04:50.172Z,981.848
2018-05-10T18:06:50.434Z,981.861
2018-05-10T18:08:50.546Z,981.939
2018-05-10T18:10:49.668Z,981.963
2018-05-10T18:12:49.816Z,982.056
2018-05-10T18:14:50.037Z,982.108
2018-05-10T18:16:50.327Z,982.183
2018-05-10T18:18:50.494Z,982.210
2018-05-10T18:20:49.700Z,982.264
2018-05-10T18:22:49.808Z,982.264
2018-05-10T18:24:49.926Z,982.391
2018-05-10T18:26:50.162Z,982.434
2018-05-10T18:28:50.325Z,982.485
2018-05-10T18:30:50.523Z,982.513
2018-05-10T18:32:49.655Z,982.543
2018-05-10T18:34:49.979Z,982.573
2018-05-10T18:36:50.259Z,982.607
2018-05-10T18:38:50.389Z,982.661
2018-05-10T18:40:50.732Z,982.690
2018-05-10T18:42:50.156Z,982.737
2018-05-10T18:44:50.276Z,982.764
2018-05-10T18:46:50.565Z,982.786
2018-05-10T18:48:49.669Z,982.810
2018-05-10T18:50:49.816Z,982.815
2018-05-10T18:52:49.994Z,982.850
2018-05-10T18:54:50.601Z,982.880
2018-05-10T18:56:50.363Z,982.949
2018-05-10T18:58:50.538Z,982.964
2018-05-10T19:00:49.696Z,982.998
2018-05-10T19:02:49.811Z,983.019
2018-05-10T19:04:50.213Z,983.056
2018-05-10T19:06:50.518Z,983.076
2018-05-10T19:08:49.654Z,983.111
2018-05-10T19:10:49.794Z,983.147
2018-05-10T19:12:49.954Z,983.178
2018-05-10T19:14:50.062Z,983.236
2018-05-10T19:16:50.353Z,983.281
2018-05-10T19:18:50.427Z,983.300
2018-05-10T19:20:50.707Z,983.300
2018-05-10T19:22:49.979Z,983.369
2018-05-10T19:24:50.093Z,983.414
2018-05-10T19:26:50.417Z,983.476
2018-05-10T19:28:50.547Z,983.565
2018-05-10T19:30:49.685Z,983.594
2018-05-10T19:32:49.867Z,983.663
2018-05-10T19:34:50.217Z,983.663
2018-05-10T19:36:50.577Z,983.773
2018-05-10T19:38:49.694Z,983.787
2018-05-10T19:40:49.826Z,983.810
2018-05-10T19:42:49.970Z,983.838
2018-05-10T19:44:50.108Z,983.896
2018-05-10T19:46:50.324Z,983.957
2018-05-10T19:48:50.415Z,983.976
2018-05-10T19:50:50.527Z,984.012
2018-05-10T19:52:49.732Z,984.055
2018-05-10T19:54:49.934Z,984.118
2018-05-10T19:56:50.296Z,984.165
2018-05-10T19:58:49.841Z,984.212
2018-05-10T20:00:50.012Z,984.261
2018-05-10T20:02:50.219Z,984.294
2018-05-10T20:04:50.588Z,984.327
2018-05-10T20:06:49.945Z,984.367
2018-05-10T20:08:50.117Z,984.425
2018-05-10T20:10:50.290Z,984.479
2018-05-10T20:12:50.454Z,984.518
2018-05-10T20:14:50.577Z,984.580
2018-05-10T20:16:50.105Z,984.590
2018-05-10T20:18:50.459Z,984.632
2018-05-10T20:20:50.639Z,984.671
2018-05-10T20:22:49.829Z,984.763
2018-05-10T20:24:50.055Z,984.798
2018-05-10T20:26:50.375Z,984.872
2018-05-10T20:28:50.489Z,984.919
2018-05-10T20:30:49.633Z,984.975
2018-05-10T20:32:49.905Z,985.035
2018-05-10T20:34:50.362Z,985.041
2018-05-10T20:36:49.670Z,985.060
2018-05-10T20:38:49.821Z,985.074
2018-05-10T20:40:49.991Z,985.086
2018-05-10T20:42:50.232Z,985.098
2018-05-10T20:44:50.800Z,985.133
2018-05-10T20:46:50.461Z,985.173
2018-05-10T20:48:50.597Z,985.196
2018-05-10T20:50:49.971Z,985.206
2018-05-10T20:52:50.197Z,985.202
2018-05-10T20:54:50.379Z,985.203
2018-05-10T20:56:49.719Z,985.206
2018-05-10T20:58:49.852Z,985.232
2018-05-10T21:00:50.043Z,985.250
2018-05-10T21:02:50.204Z,985.253
2018-05-10T21:04:50.493Z,985.287
2018-05-10T21:06:49.928Z,985.307
2018-05-10T21:08:50.071Z,985.365
2018-05-10T21:10:50.146Z,985.365
2018-05-10T21:12:50.261Z,985.422
2018-05-10T21:14:50.411Z,985.466
2018-05-10T21:16:49.713Z,985.513
2018-05-10T21:18:49.882Z,985.579
2018-05-10T21:20:50.023Z,985.579
2018-05-10T21:22:50.157Z,985.627
2018-05-10T21:24:50.356Z,985.652
2018-05-10T21:26:50.602Z,985.691
2018-05-10T21:28:49.785Z,985.710
2018-05-10T21:30:49.981Z,985.744
2018-05-10T21:32:50.143Z,985.790
2018-05-10T21:34:50.583Z,985.810
2018-05-10T21:36:49.938Z,985.854
2018-05-10T21:38:50.030Z,985.879
2018-05-10T21:40:50.225Z,985.879
2018-05-10T21:42:50.679Z,985.903
2018-05-10T21:44:50.518Z,985.903
2018-05-10T21:46:49.628Z,985.907
2018-05-10T21:48:49.823Z,985.919
2018-05-10T21:50:49.936Z,985.959
2018-05-10T21:52:50.170Z,985.985
2018-05-10T21:54:50.520Z,985.985
2018-05-10T21:56:49.850Z,986.032
2018-05-10T21:58:49.997Z,986.056
2018-05-10T22:00:50.169Z,986.078
2018-05-10T22:02:50.468Z,986.096
2018-05-10T22:04:49.734Z,986.108
2018-05-10T22:06:49.970Z,986.130
2018-05-10T22:08:50.304Z,986.140
2018-05-10T22:10:50.585Z,986.151
2018-05-10T22:12:49.813Z,986.153
2018-05-10T22:14:49.969Z,986.146
2018-05-10T22:16:50.234Z,986.144
2018-05-10T22:18:50.374Z,986.149
2018-05-10T22:20:50.565Z,986.160
2018-05-10T22:22:49.760Z,986.174
2018-05-10T22:24:49.949Z,986.176
2018-05-10T22:26:50.281Z,986.196
2018-05-10T22:28:50.485Z,986.193
2018-05-10T22:30:50.605Z,986.192
2018-05-10T22:32:49.758Z,986.193
2018-05-10T22:34:50.102Z,986.193
2018-05-10T22:36:50.313Z,986.204
2018-05-10T22:38:50.442Z,986.203
2018-05-10T22:40:50.560Z,986.197
2018-05-10T22:42:49.663Z,986.187
2018-05-10T22:44:49.772Z,986.166
2018-05-10T22:46:50.079Z,986.166
2018-05-10T22:48:50.180Z,986.080
2018-05-10T22:50:50.379Z,986.069
2018-05-10T22:52:50.540Z,986.040
2018-05-10T22:54:49.730Z,986.040
2018-05-10T22:56:50.070Z,986.025
2018-05-10T22:58:50.258Z,986.031
2018-05-10T23:00:50.391Z,986.041
2018-05-10T23:02:50.574Z,986.069
2018-05-10T23:04:50.072Z,986.097
2018-05-10T23:06:50.289Z,986.124
2018-05-10T23:08:50.396Z,986.146
2018-05-10T23:10:50.523Z,986.176
2018-05-10T23:12:49.681Z,986.176
2018-05-10T23:14:49.830Z,986.193
2018-05-10T23:16:50.088Z,986.210
2018-05-10T23:18:50.232Z,986.215
2018-05-10T23:20:50.341Z,986.212
2018-05-10T23:22:50.561Z,986.211
2018-05-10T23:24:49.697Z,986.200
2018-05-10T23:26:49.975Z,986.185
2018-05-10T23:28:50.209Z,986.196
2018-05-10T23:30:50.352Z,986.197
2018-05-10T23:32:50.486Z,986.197
2018-05-10T23:34:49.816Z,986.173
2018-05-10T23:36:50.030Z,986.172
2018-05-10T23:38:50.183Z,986.164
2018-05-10T23:40:50.291Z,986.153
2018-05-10T23:42:50.496Z,986.136
2018-05-10T23:44:49.660Z,986.140
2018-05-10T23:46:49.883Z,986.140
2018-05-10T23:48:50.033Z,986.133
2018-05-10T23:50:50.209Z,986.136
2018-05-10T23:52:50.362Z,986.162
2018-05-10T23:54:50.556Z,986.168
2018-05-10T23:56:49.791Z,986.173
2018-05-10T23:58:49.941Z,986.168
